Overview Statistics Trail Chart Weather Telemetry Raw packets
 

This is the latest recevied weather packets stored in our database for station/object CE1JFB-10. If no packets are shown the sender has not sent any weather packets the latest 10 day(s).

<< 1 2 3 4 5 6 7 >>
Time Temp. Humidity Pressure Rain* Wind** Luminosity Snow
1777894252 21.11° C 59% 1012.6 hPa - - - -
1777890652 21.67° C 60% 1011.8 hPa - - - -
1777887052 21.67° C 59% 1011.5 hPa - - - -
1777883452 21.67° C 59% 1011.7 hPa - - - -
1777879852 21.67° C 59% 1012.2 hPa - - - -
1777876252 21.67° C 59% 1012.5 hPa - - - -
1777872652 21.67° C 59% 1012.9 hPa - - - -
1777869051 22.22° C 59% 1013.5 hPa - - - -
1777865451 21.67° C 61% 1013.9 hPa - - - -
1777861851 21.67° C 62% 1014.2 hPa - - - -
1777858251 21.67° C 61% 1013.9 hPa - - - -
1777854651 22.22° C 61% 1013.2 hPa - - - -
1777851051 22.22° C 59% 1012.5 hPa - - - -
1777847451 22.78° C 57% 1012.2 hPa - - - -
1777843851 23.33° C 56% 1012 hPa - - - -
1777840251 23.33° C 55% 1011.8 hPa - - - -
1777836651 23.89° C 52% 1011.9 hPa - - - -
1777833050 24.44° C 51% 1012.4 hPa - - - -
1777829450 24.44° C 52% 1013.1 hPa - - - -
1777825850 23.89° C 54% 1013.6 hPa - - - -
1777822250 23.33° C 56% 1014.4 hPa - - - -
1777818650 22.78° C 57% 1014.8 hPa - - - -
1777815050 22.22° C 57% 1014.4 hPa - - - -
1777811450 21.67° C 59% 1013.7 hPa - - - -
1777807850 21.67° C 60% 1013.4 hPa - - - -

* Rain since midnight (hover to see other rain measurements)
** Current wind speed in m/s (hover to see current wind gust speed)